Řízení letového provozu České republiky
OPMET data - Ceska Republika Aktualizace: 24.03.2019 21:11:06  UTC
SIGMET / AIRMET - NIL
Warning / Vystraha - NIL
AIREP - NIL
 
METAR / SPECI
SPECI LKBC 242103Z AUTO 00000KT 2700 BR SCT044 BKN050 05/04 Q1018=
METAR LKCV 242100Z 28004KT 9999 BKN032 OVC060 08/05 Q1019 NOSIG RMK BLU BLU=
METAR LKKB 242100Z 30004KT 9999 OVC032 08/03 Q1019 NOSIG RMK BLU BLU=
METAR LKKU NIL
METAR LKKV 242100Z 28003KT 8000 OVC017 05/04 Q1019 RMK REG QNH 1015=
METAR LKLN 242100Z AUTO 34002KT 9000 OVC025 08/05 Q1020=
METAR LKMT 242100Z 05004KT 9999 OVC041 08/03 Q1018 NOSIG RMK REG QNH 1015=
METAR LKNA 242100Z 33006KT CAVOK 06/04 Q1018 RMK BLU=
METAR LKPD 242100Z 28003KT 9999 BKN040 BKN060 09/05 Q1019 RMK BLACK=
METAR LKPJ 242100Z AUTO 34004KT 270V010 9999 FEW022/// SCT028/// BKN039/// 09/04 Q1018=
METAR LKPR 242100Z 31004KT 270V350 9999 OVC029 07/03 Q1019 NOSIG RMK REG QNH 1015=
METAR LKTB 242100Z 33008KT CAVOK 09/05 Q1018 NOSIG RMK REG QNH 1015=
METAR LKVO NIL
TAF
TAF LKBC NIL
TAF LKCV 241700Z 2418/2518 31008KT 9999 OVC030      TEMPO 2418/2507 6000 OVC020      PROB40 TEMPO 2418/2506 4000 RA BR OVC012      BECMG 2507/2509 28014KT      BECMG 2509/2512 28016G28KT 7000 SHRA FEW020TCU OVC030=
TAF LKKB 241700Z 2418/2518 32006KT 9999 BKN025      TEMPO 2418/2422 OVC022      BECMG 2502/2504 CAVOK      BECMG 2507/2509 28014KT BKN030      TEMPO 2510/2518 28014G24KT 7000 SHRA SCT020TCU BKN025=
TAF LKKU NIL
TAF AMD LKKV 242100Z 2421/2600 29006KT 8000 OVC017      BECMG 2423/2501 2500 BR OVC011      TEMPO 2501/2505 1400 BR OVC006      TEMPO 2507/2600 3000 -SHRASN OVC011      PROB30 TEMPO 2510/2517 32014G26KT 1800 SHRASN BKN007TCU=
TAF LKLN NIL
TAF LKMT 241700Z 2418/2600 02008KT CAVOK      BECMG 2418/2421 BKN023      TEMPO 2421/2507 VRB02KT 3500 -RA BKN014      BECMG 2507/2510 25010KT CAVOK      TEMPO 2511/2516 27016G32KT      BECMG 2516/2518 33005KT      TEMPO 2518/2600 3000 -SNRA BKN016=
TAF LKNA 241700Z 2418/2518 33008KT 9999 BKN030      TEMPO 2418/2503 35015KT 5000 RA BKN020      TEMPO 2509/2518 30016G32KT      TEMPO 2512/2518 5000 SHRASN BKN015=
TAF AMD LKPD 241900Z 2418/2518 CNL=
TAF LKPJ NIL
TAF LKPR 241700Z 2418/2600 34010KT 9999 BKN030      BECMG 2501/2503 28010KT      TEMPO 2509/2519 30016G32KT 4000 -SHRA BKN018      PROB30 TEMPO 2513/2517 2500 SHRASN BKN012TCU      BECMG 2519/2521 4000 BR BKN013=
TAF LKTB 241700Z 2418/2600 36008KT CAVOK      BECMG 2418/2420 BKN027      TEMPO 2421/2505 4000 BR BKN014      BECMG 2505/2507 30012KT      TEMPO 2510/2521 32016G32KT 7000 -SHRA BKN017      TEMPO 2521/2600 4500 BR BKN015=
TAF LKVO NIL